createdAt,value
2022-10-31T00:01:29.828Z,3.95
2022-10-31T00:03:56.507Z,3.95
2022-10-31T00:06:23.232Z,3.55
2022-10-31T00:08:50.050Z,3.72
2022-10-31T00:11:16.778Z,4.35
2022-10-31T00:13:43.498Z,4.43
2022-10-31T00:16:10.327Z,3.47
2022-10-31T00:18:37.036Z,3.30
2022-10-31T00:21:03.772Z,3.20
2022-10-31T00:23:30.516Z,2.97
2022-10-31T00:25:57.259Z,3.28
2022-10-31T00:28:23.961Z,3.28
2022-10-31T00:30:50.720Z,3.47
2022-10-31T00:33:17.451Z,3.45
2022-10-31T00:35:44.230Z,3.10
2022-10-31T00:38:11.004Z,3.10
2022-10-31T00:40:37.685Z,3.10
2022-10-31T00:43:04.859Z,3.28
2022-10-31T00:45:31.766Z,3.00
2022-10-31T00:47:58.827Z,2.75
2022-10-31T00:50:25.850Z,3.08
2022-10-31T00:52:52.554Z,2.90
2022-10-31T00:55:19.423Z,3.30
2022-10-31T00:57:46.066Z,3.10
2022-10-31T01:00:12.945Z,2.95
2022-10-31T01:02:40.840Z,2.72
2022-10-31T01:05:08.233Z,3.78
2022-10-31T01:07:34.979Z,3.58
2022-10-31T01:10:01.741Z,3.95
2022-10-31T01:12:28.556Z,3.20
2022-10-31T01:14:55.233Z,3.00
2022-10-31T01:17:22.029Z,2.63
2022-10-31T01:19:48.766Z,3.30
2022-10-31T01:22:15.506Z,2.80
2022-10-31T01:24:42.171Z,2.92
2022-10-31T01:27:08.901Z,3.17
2022-10-31T01:29:35.648Z,2.40
2022-10-31T01:32:02.389Z,2.45
2022-10-31T01:34:29.075Z,2.95
2022-10-31T01:36:55.830Z,3.40
2022-10-31T01:39:22.844Z,3.15
2022-10-31T01:41:49.689Z,2.95
2022-10-31T01:44:16.798Z,2.90
2022-10-31T01:46:43.884Z,4.65
2022-10-31T01:49:10.621Z,3.33
2022-10-31T01:51:37.326Z,3.60
2022-10-31T01:54:04.113Z,3.38
2022-10-31T01:56:30.893Z,3.13
2022-10-31T01:58:57.568Z,3.58
2022-10-31T02:01:24.517Z,3.25
2022-10-31T02:03:51.428Z,3.15
2022-10-31T02:06:21.361Z,3.70
2022-10-31T02:08:48.077Z,3.33
2022-10-31T02:11:14.802Z,3.00
2022-10-31T02:13:42.159Z,3.13
2022-10-31T02:16:09.561Z,2.92
2022-10-31T02:18:36.326Z,2.72
2022-10-31T02:21:03.623Z,3.28
2022-10-31T02:23:31.267Z,3.20
2022-10-31T02:26:00.584Z,2.83
2022-10-31T02:28:27.512Z,3.83
2022-10-31T02:30:54.226Z,3.15
2022-10-31T02:33:21.503Z,3.22
2022-10-31T02:35:48.945Z,3.15
2022-10-31T02:38:15.698Z,3.22
2022-10-31T02:40:42.480Z,3.28
2022-10-31T02:43:41.219Z,3.38
2022-10-31T02:46:08.373Z,2.83
2022-10-31T02:48:36.315Z,3.85
2022-10-31T02:51:03.149Z,3.53
2022-10-31T02:53:29.856Z,4.03
2022-10-31T02:55:56.951Z,3.95
2022-10-31T02:58:24.235Z,3.47
2022-10-31T03:00:52.984Z,3.40
2022-10-31T03:03:20.004Z,4.18
2022-10-31T03:05:46.708Z,2.85
2022-10-31T03:08:13.355Z,3.03
2022-10-31T03:10:40.151Z,3.25
2022-10-31T03:13:06.863Z,3.60
2022-10-31T03:15:33.770Z,3.35
2022-10-31T03:18:00.712Z,3.45
2022-10-31T03:20:28.310Z,3.03
2022-10-31T03:22:55.012Z,3.40
2022-10-31T03:25:22.687Z,3.05
2022-10-31T03:27:49.371Z,3.85
2022-10-31T03:30:16.249Z,2.50
2022-10-31T03:32:56.699Z,3.15
2022-10-31T03:35:23.590Z,3.30
2022-10-31T03:37:50.306Z,3.42
2022-10-31T03:40:17.058Z,3.25
2022-10-31T03:42:43.914Z,3.60
2022-10-31T03:45:10.770Z,4.93
2022-10-31T03:47:37.431Z,2.85
2022-10-31T03:50:04.582Z,2.95
2022-10-31T03:52:31.367Z,4.07
2022-10-31T03:54:58.153Z,3.47
2022-10-31T03:57:24.879Z,3.60
2022-10-31T03:59:51.757Z,3.17
2022-10-31T04:02:18.599Z,3.35
2022-10-31T04:04:45.457Z,4.00
2022-10-31T04:07:12.870Z,3.08
2022-10-31T04:09:39.653Z,3.58
2022-10-31T04:12:07.658Z,3.40
2022-10-31T04:14:54.728Z,3.55
2022-10-31T04:17:22.796Z,3.83
2022-10-31T04:19:50.072Z,3.70
2022-10-31T04:22:16.996Z,3.45
2022-10-31T04:24:43.787Z,3.33
2022-10-31T04:27:14.392Z,3.10
2022-10-31T04:29:42.576Z,3.72
2022-10-31T04:32:11.194Z,3.75
2022-10-31T04:34:38.202Z,2.92
2022-10-31T04:37:05.357Z,3.15
2022-10-31T04:39:33.063Z,3.65
2022-10-31T04:42:18.293Z,3.70
2022-10-31T04:44:45.100Z,3.38
2022-10-31T04:47:11.914Z,3.05
2022-10-31T04:49:38.688Z,2.85
2022-10-31T04:52:05.789Z,3.33
2022-10-31T04:54:33.431Z,2.92
2022-10-31T04:57:20.374Z,3.05
2022-10-31T04:59:48.140Z,3.40
2022-10-31T05:02:14.967Z,3.08
2022-10-31T05:04:50.846Z,3.25
2022-10-31T05:07:18.414Z,3.15
2022-10-31T05:09:45.133Z,3.35
2022-10-31T05:12:12.991Z,2.95
2022-10-31T05:15:14.441Z,2.90
2022-10-31T05:17:59.775Z,2.87
2022-10-31T05:20:45.029Z,2.80
2022-10-31T05:23:32.017Z,3.08
2022-10-31T05:25:59.940Z,2.95
2022-10-31T05:28:27.094Z,3.70
2022-10-31T05:30:54.415Z,2.95
2022-10-31T05:33:21.848Z,2.83
2022-10-31T05:35:51.049Z,2.85
2022-10-31T05:38:36.320Z,3.85
2022-10-31T05:41:11.462Z,2.92
2022-10-31T05:43:42.184Z,3.28
2022-10-31T05:46:09.920Z,3.03
2022-10-31T05:49:00.179Z,2.50
2022-10-31T05:51:29.364Z,3.13
2022-10-31T05:53:56.261Z,2.50
2022-10-31T05:56:23.368Z,2.83
2022-10-31T05:58:50.107Z,2.85
2022-10-31T06:01:16.886Z,2.83
2022-10-31T06:03:45.757Z,3.10
2022-10-31T06:06:16.013Z,2.90
2022-10-31T06:08:42.730Z,2.90
2022-10-31T06:11:15.110Z,2.63
2022-10-31T06:14:00.284Z,3.08
2022-10-31T06:16:35.557Z,3.42
2022-10-31T06:19:20.850Z,8.40
2022-10-31T06:21:47.563Z,7.43
2022-10-31T06:24:14.360Z,4.32
2022-10-31T06:27:04.007Z,4.18
2022-10-31T06:29:31.791Z,3.92
2022-10-31T06:32:11.267Z,3.85
2022-10-31T06:34:41.457Z,4.50
2022-10-31T06:37:09.027Z,4.82
2022-10-31T06:39:35.818Z,4.30
2022-10-31T06:42:02.702Z,4.18
2022-10-31T06:44:30.552Z,3.60
2022-10-31T06:46:59.902Z,3.72
2022-10-31T06:49:52.678Z,3.60
2022-10-31T06:52:24.384Z,3.45
2022-10-31T06:54:52.267Z,4.32
2022-10-31T06:57:21.200Z,3.85
2022-10-31T06:59:47.929Z,4.07
2022-10-31T07:02:14.670Z,3.20
2022-10-31T07:04:43.555Z,3.80
2022-10-31T07:07:13.767Z,3.42
2022-10-31T07:09:40.649Z,3.58
2022-10-31T07:12:09.912Z,3.78
2022-10-31T07:14:39.870Z,4.03
2022-10-31T07:17:06.911Z,3.60
2022-10-31T07:19:38.118Z,4.28
2022-10-31T07:22:04.854Z,3.53
2022-10-31T07:24:32.999Z,3.17
2022-10-31T07:27:17.925Z,4.20
2022-10-31T07:29:46.179Z,4.00
2022-10-31T07:32:13.297Z,3.75
2022-10-31T07:34:47.596Z,4.30
2022-10-31T07:37:14.484Z,4.50
2022-10-31T07:39:41.204Z,4.93
2022-10-31T07:42:08.047Z,4.43
2022-10-31T07:44:36.254Z,4.68
2022-10-31T07:47:38.191Z,5.05
2022-10-31T07:50:23.607Z,4.82
2022-10-31T07:53:08.984Z,4.32
2022-10-31T07:55:50.185Z,3.85
2022-10-31T07:58:18.995Z,3.88
2022-10-31T08:00:46.357Z,4.47
2022-10-31T08:03:16.459Z,4.78
2022-10-31T08:06:03.435Z,3.83
2022-10-31T08:08:36.014Z,3.80
2022-10-31T08:11:05.283Z,3.42
2022-10-31T08:13:32.585Z,3.92
2022-10-31T08:16:04.485Z,2.95
2022-10-31T08:18:33.783Z,3.38
2022-10-31T08:21:00.871Z,2.90
2022-10-31T08:23:27.600Z,3.22
2022-10-31T08:25:55.410Z,3.10
2022-10-31T08:28:23.594Z,3.75
2022-10-31T08:30:52.111Z,2.53
2022-10-31T08:33:37.100Z,3.73
2022-10-31T08:36:36.206Z,2.97
2022-10-31T08:39:21.294Z,2.85
2022-10-31T08:41:47.996Z,2.50
2022-10-31T08:44:14.790Z,2.72
2022-10-31T08:46:43.800Z,3.55
2022-10-31T08:49:10.484Z,2.38
2022-10-31T08:51:37.540Z,3.00
2022-10-31T08:54:04.268Z,2.95
2022-10-31T08:56:33.798Z,3.00
2022-10-31T08:59:03.211Z,3.33
2022-10-31T09:01:40.405Z,3.00
2022-10-31T09:04:07.261Z,3.47
2022-10-31T09:06:33.977Z,3.35
2022-10-31T09:09:00.696Z,3.33
2022-10-31T09:11:27.429Z,3.38
2022-10-31T09:14:12.995Z,3.08
2022-10-31T09:16:39.708Z,3.28
2022-10-31T09:19:11.737Z,2.88
2022-10-31T09:21:38.758Z,2.80
2022-10-31T09:24:05.632Z,2.95
2022-10-31T09:26:32.398Z,2.75
2022-10-31T09:29:12.979Z,3.03
2022-10-31T09:31:44.698Z,2.50
2022-10-31T09:34:25.551Z,3.00
2022-10-31T09:37:02.211Z,3.00
2022-10-31T09:39:29.025Z,3.10
2022-10-31T09:42:02.375Z,2.70
2022-10-31T09:44:31.484Z,3.28
2022-10-31T09:46:58.928Z,2.38
2022-10-31T09:49:29.004Z,2.22
2022-10-31T09:51:55.813Z,3.13
2022-10-31T09:54:27.876Z,2.80
2022-10-31T09:56:54.740Z,2.60
2022-10-31T09:59:21.429Z,2.25
2022-10-31T10:01:48.199Z,2.08
2022-10-31T10:04:19.818Z,2.20
2022-10-31T10:07:04.052Z,2.60
2022-10-31T10:09:45.557Z,2.40
2022-10-31T10:12:47.360Z,2.67
2022-10-31T10:15:14.198Z,2.17
2022-10-31T10:17:40.930Z,2.92
2022-10-31T10:20:07.691Z,3.28
2022-10-31T10:22:34.467Z,2.42
2022-10-31T10:25:01.173Z,3.22
2022-10-31T10:27:27.887Z,2.72
2022-10-31T10:29:54.563Z,2.45
2022-10-31T10:32:21.293Z,2.60
2022-10-31T10:34:48.029Z,2.20
2022-10-31T10:37:14.719Z,2.70
2022-10-31T10:39:41.393Z,2.80
2022-10-31T10:42:26.723Z,2.83
2022-10-31T10:45:12.368Z,2.75
2022-10-31T10:47:39.795Z,2.78
2022-10-31T10:50:06.532Z,2.53
2022-10-31T10:52:43.436Z,2.50
2022-10-31T10:55:14.429Z,2.63
2022-10-31T10:57:41.077Z,2.65
2022-10-31T11:00:07.772Z,2.72
2022-10-31T11:02:34.469Z,2.80
2022-10-31T11:05:01.121Z,3.00
2022-10-31T11:07:27.811Z,2.42
2022-10-31T11:09:54.506Z,2.90
2022-10-31T11:12:21.185Z,2.42
2022-10-31T11:14:47.968Z,2.72
2022-10-31T11:17:14.869Z,2.00
2022-10-31T11:19:41.518Z,2.63
2022-10-31T11:22:08.700Z,3.20
2022-10-31T11:24:35.415Z,2.50
2022-10-31T11:27:02.094Z,2.60
2022-10-31T11:29:28.808Z,2.17
2022-10-31T11:31:55.469Z,2.30
2022-10-31T11:34:22.206Z,2.45
2022-10-31T11:36:49.045Z,1.90
2022-10-31T11:39:15.673Z,5.50
2022-10-31T11:41:43.695Z,1.88
2022-10-31T11:44:10.410Z,1.95
2022-10-31T11:46:37.124Z,2.10
2022-10-31T11:49:03.846Z,1.90
2022-10-31T11:51:30.469Z,1.65
2022-10-31T11:54:00.095Z,1.60
2022-10-31T11:56:29.640Z,2.08
2022-10-31T11:58:56.983Z,5.15
2022-10-31T12:01:23.734Z,2.08
2022-10-31T12:03:50.546Z,2.25
2022-10-31T12:06:18.879Z,2.42
2022-10-31T12:08:45.621Z,1.80
2022-10-31T12:11:12.275Z,2.47
2022-10-31T12:13:39.039Z,1.70
2022-10-31T12:16:05.704Z,1.63
2022-10-31T12:18:32.375Z,1.67
2022-10-31T12:20:59.346Z,1.70
2022-10-31T12:23:25.999Z,1.67
2022-10-31T12:25:52.742Z,1.23
2022-10-31T12:28:19.512Z,1.85
2022-10-31T12:30:46.159Z,1.65
2022-10-31T12:33:12.827Z,1.13
2022-10-31T12:38:11.246Z,1.40
2022-10-31T12:40:37.942Z,1.98
2022-10-31T12:43:04.611Z,1.65
2022-10-31T12:45:31.354Z,1.60
2022-10-31T12:47:58.079Z,2.33
2022-10-31T12:50:24.812Z,2.00
2022-10-31T12:52:51.503Z,2.03
2022-10-31T12:55:18.475Z,2.13
2022-10-31T12:57:45.175Z,1.40
2022-10-31T13:00:11.905Z,1.27
2022-10-31T13:02:39.816Z,1.50
2022-10-31T13:05:06.482Z,1.75
2022-10-31T13:07:33.209Z,1.73
2022-10-31T13:09:59.938Z,2.05
2022-10-31T13:12:26.672Z,1.80
2022-10-31T13:14:54.310Z,1.80
2022-10-31T13:17:21.821Z,2.90
2022-10-31T13:19:48.698Z,2.00
2022-10-31T13:22:15.372Z,2.40
2022-10-31T13:24:42.088Z,2.40
2022-10-31T13:27:08.750Z,1.98
2022-10-31T13:29:35.429Z,1.98
2022-10-31T13:32:02.089Z,2.25
2022-10-31T13:34:28.780Z,1.77
2022-10-31T13:36:55.614Z,1.73
2022-10-31T13:39:22.342Z,1.63
2022-10-31T13:41:49.114Z,1.42
2022-10-31T13:44:15.798Z,1.75
2022-10-31T13:49:10.158Z,1.55
2022-10-31T13:51:36.893Z,1.40
2022-10-31T13:54:03.648Z,1.38
2022-10-31T13:56:30.469Z,1.60
2022-10-31T13:58:57.214Z,1.85
2022-10-31T14:01:24.090Z,1.45
2022-10-31T14:04:13.967Z,1.70
2022-10-31T14:06:39.927Z,1.50
2022-10-31T14:09:06.616Z,1.75
2022-10-31T14:11:36.279Z,1.60
2022-10-31T14:14:03.893Z,1.55
2022-10-31T14:16:31.346Z,1.50
2022-10-31T14:18:58.055Z,1.35
2022-10-31T14:21:24.931Z,1.88
2022-10-31T14:23:54.132Z,1.75
2022-10-31T14:26:21.866Z,1.90
2022-10-31T14:28:48.569Z,1.55
2022-10-31T14:31:15.316Z,1.40
2022-10-31T14:33:42.046Z,1.52
2022-10-31T14:36:10.429Z,1.67
2022-10-31T14:38:37.165Z,1.40
2022-10-31T14:41:03.826Z,1.38
2022-10-31T14:43:30.559Z,1.67
2022-10-31T14:45:57.289Z,1.80
2022-10-31T14:48:24.074Z,1.63
2022-10-31T14:50:50.747Z,1.70
2022-10-31T14:53:17.458Z,1.58
2022-10-31T14:55:44.211Z,1.63
2022-10-31T14:58:10.893Z,1.65
2022-10-31T15:00:37.621Z,1.60
2022-10-31T15:03:04.540Z,1.88
2022-10-31T15:05:31.361Z,2.28
2022-10-31T15:07:58.058Z,2.10
2022-10-31T15:10:24.874Z,2.15
2022-10-31T15:12:51.603Z,2.08
2022-10-31T15:15:18.271Z,2.15
2022-10-31T15:17:45.017Z,2.22
2022-10-31T15:20:11.706Z,2.33
2022-10-31T15:22:38.438Z,2.40
2022-10-31T15:25:05.123Z,1.95
2022-10-31T15:27:32.515Z,2.08
2022-10-31T15:29:59.223Z,2.33
2022-10-31T15:32:25.894Z,1.90
2022-10-31T15:34:52.876Z,2.30
2022-10-31T15:37:19.645Z,2.13
2022-10-31T15:39:46.293Z,2.58
2022-10-31T15:42:12.988Z,2.20
2022-10-31T15:44:39.827Z,2.45
2022-10-31T15:47:06.559Z,1.77
2022-10-31T15:49:33.327Z,2.33
2022-10-31T15:52:01.111Z,2.08
2022-10-31T15:54:27.895Z,2.58
2022-10-31T15:56:54.684Z,2.08
2022-10-31T15:59:21.378Z,1.90
2022-10-31T16:01:48.216Z,2.15
2022-10-31T16:04:15.029Z,2.38
2022-10-31T16:06:41.721Z,2.20
2022-10-31T16:09:08.422Z,2.45
2022-10-31T16:11:35.212Z,2.53
2022-10-31T16:14:01.881Z,1.98
2022-10-31T16:16:35.304Z,2.28
2022-10-31T16:19:02.851Z,2.30
2022-10-31T16:21:29.530Z,2.17
2022-10-31T16:23:58.193Z,2.30
2022-10-31T16:26:25.097Z,2.53
2022-10-31T16:28:51.827Z,2.33
2022-10-31T16:31:19.887Z,2.33
2022-10-31T16:33:46.539Z,2.85
2022-10-31T16:36:33.892Z,3.05
2022-10-31T16:39:00.080Z,3.40
2022-10-31T16:41:26.861Z,2.63
2022-10-31T16:43:53.535Z,2.70
2022-10-31T16:46:20.328Z,2.53
2022-10-31T16:48:46.983Z,2.88
2022-10-31T16:51:13.673Z,2.85
2022-10-31T16:53:45.613Z,2.90
2022-10-31T16:56:13.373Z,3.00
2022-10-31T16:58:40.099Z,3.20
2022-10-31T17:01:06.875Z,3.75
2022-10-31T17:03:33.642Z,4.00
2022-10-31T17:06:00.337Z,3.65
2022-10-31T17:08:27.046Z,3.97
2022-10-31T17:10:53.735Z,4.05
2022-10-31T17:13:20.445Z,4.10
2022-10-31T17:15:47.154Z,4.10
2022-10-31T17:18:13.825Z,4.20
2022-10-31T17:20:40.528Z,4.70
2022-10-31T17:23:07.218Z,5.03
2022-10-31T17:25:33.892Z,4.88
2022-10-31T17:28:00.646Z,5.38
2022-10-31T17:30:27.404Z,5.20
2022-10-31T17:32:55.328Z,5.28
2022-10-31T17:35:22.031Z,6.20
2022-10-31T17:37:48.701Z,6.00
2022-10-31T17:40:15.358Z,6.45
2022-10-31T17:42:42.045Z,7.28
2022-10-31T17:45:08.703Z,7.30
2022-10-31T17:47:35.380Z,7.50
2022-10-31T17:50:02.077Z,7.32
2022-10-31T17:52:28.780Z,7.90
2022-10-31T17:54:55.453Z,8.32
2022-10-31T17:57:22.177Z,8.43
2022-10-31T17:59:48.956Z,8.73
2022-10-31T18:02:15.880Z,9.05
2022-10-31T18:04:42.822Z,9.65
2022-10-31T18:07:09.506Z,9.48
2022-10-31T18:09:36.219Z,9.70
2022-10-31T18:12:02.926Z,10.57
2022-10-31T18:14:29.703Z,9.98
2022-10-31T18:16:56.514Z,10.70
2022-10-31T18:19:23.195Z,11.45
2022-10-31T18:21:50.042Z,11.75
2022-10-31T18:24:16.701Z,13.05
2022-10-31T18:26:43.438Z,12.27
2022-10-31T18:29:10.140Z,12.90
2022-10-31T18:31:36.821Z,13.68
2022-10-31T18:34:03.550Z,13.82
2022-10-31T18:36:30.228Z,14.40
2022-10-31T18:38:57.120Z,16.67
2022-10-31T18:41:23.806Z,18.02
2022-10-31T18:43:50.658Z,15.40
2022-10-31T18:46:18.173Z,15.15
2022-10-31T18:48:44.914Z,14.98
2022-10-31T18:51:11.595Z,16.25
2022-10-31T18:53:38.337Z,15.82
2022-10-31T18:56:05.052Z,15.27
2022-10-31T18:58:31.731Z,15.05
2022-10-31T19:00:58.477Z,15.50
2022-10-31T19:03:26.338Z,15.18
2022-10-31T19:05:53.138Z,15.82
2022-10-31T19:08:19.912Z,15.88
2022-10-31T19:10:46.635Z,15.07
2022-10-31T19:13:13.316Z,16.10
2022-10-31T19:15:40.075Z,15.00
2022-10-31T19:18:06.812Z,15.93
2022-10-31T19:20:33.521Z,15.23
2022-10-31T19:23:00.511Z,14.60
2022-10-31T19:25:27.464Z,15.07
2022-10-31T19:27:54.153Z,17.08
2022-10-31T19:30:21.508Z,14.45
2022-10-31T19:32:48.288Z,15.40
2022-10-31T19:35:14.977Z,16.30
2022-10-31T19:37:42.468Z,14.05
2022-10-31T19:40:09.363Z,14.30
2022-10-31T19:42:36.051Z,14.18
2022-10-31T19:45:03.739Z,12.93
2022-10-31T19:47:30.459Z,13.32
2022-10-31T19:49:57.140Z,13.90
2022-10-31T19:52:23.889Z,13.25
2022-10-31T19:54:50.594Z,14.30
2022-10-31T19:57:18.538Z,13.20
2022-10-31T19:59:47.305Z,12.70
2022-10-31T20:02:19.737Z,13.57
2022-10-31T20:04:46.454Z,13.00
2022-10-31T20:07:13.391Z,13.75
2022-10-31T20:09:40.211Z,12.40
2022-10-31T20:12:06.899Z,12.63
2022-10-31T20:14:33.697Z,13.45
2022-10-31T20:17:00.353Z,11.75
2022-10-31T20:19:27.483Z,12.75
2022-10-31T20:21:54.295Z,12.73
2022-10-31T20:24:20.979Z,12.20
2022-10-31T20:26:47.645Z,11.32
2022-10-31T20:29:16.018Z,11.45
2022-10-31T20:31:42.838Z,9.23
2022-10-31T20:34:09.619Z,9.77
2022-10-31T20:36:36.783Z,8.82
2022-10-31T20:39:09.356Z,8.45
2022-10-31T20:41:39.596Z,8.75
2022-10-31T20:44:07.005Z,9.00
2022-10-31T20:46:33.755Z,8.57
2022-10-31T20:49:00.654Z,9.50
2022-10-31T20:51:33.165Z,9.68
2022-10-31T20:54:00.108Z,8.80
2022-10-31T20:56:27.079Z,6.78
2022-10-31T20:58:53.834Z,6.85
2022-10-31T21:01:20.686Z,7.70
2022-10-31T21:03:47.655Z,7.28
2022-10-31T21:06:14.393Z,6.88
2022-10-31T21:08:41.161Z,6.40
2022-10-31T21:11:08.549Z,6.15
2022-10-31T21:13:39.543Z,6.18
2022-10-31T21:16:07.643Z,5.55
2022-10-31T21:18:34.352Z,6.03
2022-10-31T21:21:01.117Z,5.75
2022-10-31T21:23:27.833Z,6.97
2022-10-31T21:25:54.703Z,6.70
2022-10-31T21:28:21.520Z,6.95
2022-10-31T21:30:48.238Z,6.72
2022-10-31T21:33:15.012Z,6.25
2022-10-31T21:35:42.092Z,6.57
2022-10-31T21:38:08.813Z,6.15
2022-10-31T21:40:35.918Z,6.47
2022-10-31T21:43:03.098Z,6.13
2022-10-31T21:45:30.210Z,6.32
2022-10-31T21:47:56.988Z,6.07
2022-10-31T21:50:24.026Z,6.07
2022-10-31T21:52:50.910Z,5.70
2022-10-31T21:55:17.790Z,5.63
2022-10-31T21:57:44.557Z,5.55
2022-10-31T22:00:11.430Z,5.88
2022-10-31T22:02:38.318Z,5.80
2022-10-31T22:05:05.390Z,5.20
2022-10-31T22:07:32.092Z,5.43
2022-10-31T22:09:58.859Z,4.78
2022-10-31T22:12:25.575Z,5.63
2022-10-31T22:14:52.396Z,4.55
2022-10-31T22:17:19.321Z,4.50
2022-10-31T22:19:46.028Z,4.95
2022-10-31T22:22:13.245Z,4.20
2022-10-31T22:24:40.132Z,3.75
2022-10-31T22:27:06.932Z,4.13
2022-10-31T22:29:35.414Z,3.78
2022-10-31T22:32:03.041Z,3.55
2022-10-31T22:34:29.813Z,3.47
2022-10-31T22:36:56.658Z,4.57
2022-10-31T22:39:23.445Z,3.45
2022-10-31T22:41:50.244Z,3.38
2022-10-31T22:44:16.989Z,3.20
2022-10-31T22:46:43.727Z,3.30
2022-10-31T22:49:10.552Z,3.60
2022-10-31T22:51:37.831Z,3.47
2022-10-31T22:54:04.567Z,3.80
2022-10-31T22:56:31.302Z,3.50
2022-10-31T22:58:57.972Z,3.40
2022-10-31T23:01:24.784Z,3.17
2022-10-31T23:03:51.558Z,3.97
2022-10-31T23:06:18.283Z,3.08
2022-10-31T23:08:45.066Z,3.05
2022-10-31T23:11:11.728Z,2.53
2022-10-31T23:13:57.125Z,2.45
2022-10-31T23:16:23.793Z,1.55
2022-10-31T23:18:50.754Z,1.33
2022-10-31T23:21:37.517Z,1.40
2022-10-31T23:24:04.269Z,1.52
2022-10-31T23:26:49.423Z,1.52
2022-10-31T23:29:16.109Z,1.98
2022-10-31T23:31:42.789Z,2.13
2022-10-31T23:34:09.488Z,2.13
2022-10-31T23:36:38.357Z,2.47
2022-10-31T23:39:05.066Z,2.50
2022-10-31T23:41:31.826Z,2.53
2022-10-31T23:43:58.545Z,2.92
2022-10-31T23:46:25.269Z,3.50
2022-10-31T23:48:53.581Z,2.75
2022-10-31T23:51:20.230Z,2.63
2022-10-31T23:53:46.959Z,3.55
2022-10-31T23:56:13.664Z,3.03
2022-10-31T23:58:40.392Z,2.55
